Airfield :







YOU CAN JOIN US ON...

 
LOGIN :

Register | Disclaimer

   EN    FR    IT 

 









Legend :    VFR   Marginal VFR   IFR   Intensive IFR   Very Intensive IFR
Visi :
Ceiling :
>= 8 km
>= 3000ft
5 to 8 km
1000 to 3000 ft
1500m to 5 km
500 to 1000 ft
800 to 1500m
200 to 500 ft
< 800m
< 200 ft
Symbols :   Thunderstorms  Fog  Heavy snow  Heavy precipitations  Wind > 20 kt







- Airport Elevation : 100 ft
- IATA code : PSM


KPSM - Portsmouth International at Pease

CURRENT METAR :
  • 191156Z 21006KT 7SM BKN070 OVC250 14/08 A3009 RMK AO2A SLP192 T01360084 10136 20107 53003

EXPIRED METARs :
  • 191056Z 15007KT 10SM FEW075 SCT090 BKN250 12/08 A3007 RMK AO2A SLP185 T01150078
  • 190956Z 16006KT 10SM BKN075 OVC090 11/07 A3008 RMK AO2A SLP189 T01130072

TAF KPSM
Valid from the 19 at 12:00 until the 20 at 12:00 UTC


191120Z 1912/2012 14005KT P6SM -SHRA BKN080 OVC100
TEMPO 1913/1917 2SM SHRA BKN030 OVC050
FM191700 16010KT P6SM -SHRA BKN050 OVC080
FM191900 18010KT P6SM SCT080 BKN120
FM200200 18006KT P6SM BKN012 OVC025
FM200500 18007KT 1 1/2SM BR OVC003
KZBW FIR / North America



MET'MAP, your aeronautical weather chart ! - Copyright ORBIFLY December 2007 - Disclaimer

ORBIFLY MET'MAP TEAM :

Programming & Development : Alexandra Zaïnal
Concept & Development : Baudouin d'Aumeries
Co-Development & Prog : Marc-Olivier Méhu
Technical & hardware support : Manuel Goepfert

Contact : metmap@orbifly.com




SOURCES & CREDITS :

   NOAA